createdAt,value
2019-02-10T00:00:47.197Z,53.10
2019-02-10T00:03:13.937Z,69.50
2019-02-10T00:05:40.787Z,87.40
2019-02-10T00:08:07.819Z,63.00
2019-02-10T00:10:34.967Z,67.47
2019-02-10T00:13:01.714Z,55.23
2019-02-10T00:15:28.554Z,92.77
2019-02-10T00:17:55.397Z,49.70
2019-02-10T00:20:22.236Z,64.87
2019-02-10T00:22:49.002Z,46.27
2019-02-10T00:25:15.724Z,72.23
2019-02-10T00:27:42.618Z,71.90
2019-02-10T00:30:09.789Z,65.77
2019-02-10T00:32:36.597Z,63.00
2019-02-10T00:35:03.481Z,63.57
2019-02-10T00:37:30.125Z,68.60
2019-02-10T00:39:56.820Z,95.40
2019-02-10T00:42:23.609Z,64.27
2019-02-10T00:44:50.336Z,70.67
2019-02-10T00:47:16.976Z,54.97
2019-02-10T00:49:43.735Z,58.37
2019-02-10T00:52:10.461Z,74.20
2019-02-10T00:54:37.209Z,61.20
2019-02-10T00:57:04.096Z,56.53
2019-02-10T00:59:30.872Z,83.40
2019-02-10T01:01:59.138Z,59.33
2019-02-10T01:04:27.637Z,90.33
2019-02-10T01:06:56.056Z,62.90
2019-02-10T01:09:22.937Z,71.33
2019-02-10T01:11:49.803Z,132.50
2019-02-10T01:14:16.501Z,71.30
2019-02-10T01:16:43.270Z,68.23
2019-02-10T01:19:10.306Z,83.27
2019-02-10T01:21:37.675Z,69.47
2019-02-10T01:24:04.394Z,78.73
2019-02-10T01:26:31.158Z,94.43
2019-02-10T01:28:58.199Z,67.53
2019-02-10T01:31:24.832Z,73.63
2019-02-10T01:33:51.608Z,72.67
2019-02-10T01:36:18.730Z,72.87
2019-02-10T01:38:45.463Z,77.33
2019-02-10T01:41:12.164Z,85.40
2019-02-10T01:43:38.939Z,140.10
2019-02-10T01:46:05.678Z,86.37
2019-02-10T01:48:32.660Z,83.90
2019-02-10T01:50:59.577Z,83.17
2019-02-10T01:53:26.314Z,101.37
2019-02-10T01:55:53.048Z,104.37
2019-02-10T01:58:20.717Z,84.17
2019-02-10T02:00:48.039Z,99.17
2019-02-10T02:03:14.797Z,92.57
2019-02-10T02:05:41.540Z,93.07
2019-02-10T02:08:08.277Z,98.80
2019-02-10T02:10:35.733Z,87.67
2019-02-10T02:13:02.484Z,91.20
2019-02-10T02:15:29.223Z,89.57
2019-02-10T02:17:56.675Z,106.90
2019-02-10T02:20:24.021Z,109.97
2019-02-10T02:22:51.183Z,108.73
2019-02-10T02:25:19.048Z,99.47
2019-02-10T02:27:46.105Z,104.80
2019-02-10T02:30:13.292Z,106.10
2019-02-10T02:32:40.383Z,107.27
2019-02-10T02:35:07.120Z,89.90
2019-02-10T02:37:34.631Z,81.90
2019-02-10T02:40:02.142Z,92.90
2019-02-10T02:42:29.078Z,90.37
2019-02-10T02:44:55.828Z,91.03
2019-02-10T02:47:22.669Z,98.20
2019-02-10T02:49:49.397Z,85.20
2019-02-10T02:52:16.037Z,98.10
2019-02-10T02:54:43.541Z,81.83
2019-02-10T02:57:10.336Z,95.47
2019-02-10T02:59:37.486Z,96.50
2019-02-10T03:02:04.947Z,97.43
2019-02-10T03:04:31.891Z,98.20
2019-02-10T03:06:58.626Z,95.07
2019-02-10T03:09:25.466Z,153.90
2019-02-10T03:11:52.099Z,102.33
2019-02-10T03:14:19.238Z,107.37
2019-02-10T03:16:47.486Z,84.93
2019-02-10T03:19:14.287Z,108.20
2019-02-10T03:21:40.966Z,101.37
2019-02-10T03:24:07.747Z,100.07
2019-02-10T03:26:34.497Z,111.70
2019-02-10T03:29:01.629Z,101.47
2019-02-10T03:31:28.485Z,101.40
2019-02-10T03:33:55.212Z,105.47
2019-02-10T03:36:21.960Z,101.77
2019-02-10T03:38:48.803Z,97.57
2019-02-10T03:41:15.540Z,107.40
2019-02-10T03:43:42.281Z,129.73
2019-02-10T03:46:09.391Z,113.87
2019-02-10T03:48:36.068Z,105.97
2019-02-10T03:51:03.423Z,107.93
2019-02-10T03:53:30.419Z,125.60
2019-02-10T03:55:57.195Z,98.90
2019-02-10T03:58:23.847Z,115.37
2019-02-10T04:00:50.993Z,120.57
2019-02-10T04:03:17.925Z,110.77
2019-02-10T04:05:44.676Z,118.33
2019-02-10T04:08:11.403Z,103.30
2019-02-10T04:10:38.153Z,117.93
2019-02-10T04:13:05.192Z,229.07
2019-02-10T04:15:31.940Z,112.33
2019-02-10T04:17:58.696Z,116.87
2019-02-10T04:20:25.779Z,109.07
2019-02-10T04:22:52.571Z,110.23
2019-02-10T04:25:19.407Z,116.93
2019-02-10T04:27:46.960Z,110.50
2019-02-10T04:30:14.002Z,116.00
2019-02-10T04:32:40.749Z,118.70
2019-02-10T04:35:07.443Z,125.67
2019-02-10T04:37:34.526Z,115.50
2019-02-10T04:40:01.280Z,112.97
2019-02-10T04:42:27.972Z,115.47
2019-02-10T04:44:55.066Z,107.80
2019-02-10T04:47:22.869Z,107.20
2019-02-10T04:49:49.795Z,265.70
2019-02-10T04:52:16.872Z,115.87
2019-02-10T04:54:43.661Z,120.23
2019-02-10T04:57:10.387Z,105.73
2019-02-10T04:59:37.128Z,103.13
2019-02-10T05:02:03.900Z,114.50
2019-02-10T05:04:30.723Z,110.97
2019-02-10T05:06:57.455Z,84.57
2019-02-10T05:09:24.421Z,115.83
2019-02-10T05:11:51.652Z,111.87
2019-02-10T05:14:18.387Z,121.53
2019-02-10T05:16:45.438Z,93.97
2019-02-10T05:19:12.182Z,122.87
2019-02-10T05:21:38.913Z,114.00
2019-02-10T05:24:06.261Z,107.30
2019-02-10T05:26:33.511Z,109.37
2019-02-10T05:29:00.372Z,84.63
2019-02-10T05:31:27.218Z,101.20
2019-02-10T05:33:54.357Z,105.07
2019-02-10T05:36:21.546Z,93.67
2019-02-10T05:38:48.395Z,110.27
2019-02-10T05:41:15.611Z,121.90
2019-02-10T05:43:42.906Z,105.00
2019-02-10T05:46:09.690Z,117.83
2019-02-10T05:48:36.395Z,122.63
2019-02-10T05:51:03.812Z,99.23
2019-02-10T05:53:30.527Z,107.47
2019-02-10T05:55:57.253Z,107.57
2019-02-10T05:58:24.317Z,129.13
2019-02-10T06:00:51.444Z,109.10
2019-02-10T06:03:18.190Z,119.23
2019-02-10T06:05:45.606Z,116.10
2019-02-10T06:08:13.775Z,108.63
2019-02-10T06:10:42.192Z,124.90
2019-02-10T06:13:09.357Z,101.57
2019-02-10T06:15:38.334Z,86.40
2019-02-10T06:18:05.391Z,100.40
2019-02-10T06:20:32.117Z,92.37
2019-02-10T06:22:58.858Z,86.33
2019-02-10T06:25:25.615Z,110.03
2019-02-10T06:27:52.448Z,86.67
2019-02-10T06:30:19.385Z,108.80
2019-02-10T06:32:46.124Z,97.60
2019-02-10T06:35:12.978Z,111.90
2019-02-10T06:37:39.673Z,93.17
2019-02-10T06:40:06.489Z,97.33
2019-02-10T06:42:33.292Z,94.10
2019-02-10T06:45:00.255Z,94.90
2019-02-10T06:47:27.069Z,110.77
2019-02-10T06:49:53.818Z,93.80
2019-02-10T06:52:22.968Z,132.87
2019-02-10T06:54:49.645Z,88.67
2019-02-10T06:57:16.383Z,110.60
2019-02-10T06:59:43.489Z,99.17
2019-02-10T07:02:10.274Z,97.37
2019-02-10T07:04:37.020Z,109.97
2019-02-10T07:07:04.629Z,117.07
2019-02-10T07:09:31.920Z,111.13
2019-02-10T07:11:58.669Z,90.63
2019-02-10T07:14:25.399Z,115.07
2019-02-10T07:16:52.504Z,96.70
2019-02-10T07:19:19.196Z,96.37
2019-02-10T07:21:45.927Z,95.13
2019-02-10T07:24:13.238Z,105.13
2019-02-10T07:26:40.025Z,99.33
2019-02-10T07:29:06.724Z,96.50
2019-02-10T07:31:34.136Z,99.90
2019-02-10T07:34:01.288Z,120.60
2019-02-10T07:36:28.010Z,115.37
2019-02-10T07:38:54.850Z,89.43
2019-02-10T07:41:21.793Z,92.13
2019-02-10T07:43:49.202Z,96.40
2019-02-10T07:46:16.084Z,95.93
2019-02-10T07:48:43.281Z,101.87
2019-02-10T07:51:10.070Z,97.90
2019-02-10T07:53:36.816Z,110.50
2019-02-10T07:56:03.510Z,105.73
2019-02-10T07:58:30.947Z,103.27
2019-02-10T08:00:57.642Z,92.43
2019-02-10T08:03:24.698Z,95.20
2019-02-10T08:05:52.053Z,83.40
2019-02-10T08:08:19.195Z,105.27
2019-02-10T08:10:46.134Z,143.27
2019-02-10T08:13:13.295Z,91.97
2019-02-10T08:15:40.346Z,101.37
2019-02-10T08:18:07.078Z,98.40
2019-02-10T08:20:33.922Z,82.73
2019-02-10T08:23:00.617Z,86.53
2019-02-10T08:25:27.286Z,85.13
2019-02-10T08:27:53.982Z,80.47
2019-02-10T08:30:20.775Z,83.33
2019-02-10T08:32:47.507Z,83.13
2019-02-10T08:35:14.284Z,66.57
2019-02-10T08:37:40.989Z,199.50
2019-02-10T08:40:07.721Z,72.37
2019-02-10T08:42:34.362Z,69.40
2019-02-10T08:45:01.099Z,72.73
2019-02-10T08:47:33.627Z,63.43
2019-02-10T08:49:56.228Z,59.10
2019-02-10T08:52:23.017Z,65.10
2019-02-10T08:54:49.901Z,62.20
2019-02-10T08:57:16.647Z,65.00
2019-02-10T08:59:43.420Z,64.73
2019-02-10T09:02:10.108Z,53.40
2019-02-10T09:04:37.855Z,54.48
2019-02-10T09:07:04.621Z,53.23
2019-02-10T09:09:31.360Z,60.38
2019-02-10T09:11:58.100Z,51.25
2019-02-10T09:14:24.852Z,51.58
2019-02-10T09:16:51.698Z,83.40
2019-02-10T09:19:18.535Z,64.07
2019-02-10T09:21:45.259Z,38.53
2019-02-10T09:24:11.999Z,39.18
2019-02-10T09:26:38.777Z,32.78
2019-02-10T09:29:07.026Z,29.95
2019-02-10T09:31:34.327Z,41.80
2019-02-10T09:34:01.115Z,38.50
2019-02-10T09:36:27.845Z,68.00
2019-02-10T09:38:54.498Z,32.17
2019-02-10T09:41:21.631Z,33.23
2019-02-10T09:43:48.585Z,27.90
2019-02-10T09:46:15.324Z,33.95
2019-02-10T09:48:42.193Z,26.15
2019-02-10T09:51:08.910Z,29.90
2019-02-10T09:53:35.736Z,22.22
2019-02-10T09:56:02.385Z,28.62
2019-02-10T09:58:29.224Z,24.70
2019-02-10T10:00:55.955Z,22.77
2019-02-10T10:03:22.680Z,19.23
2019-02-10T10:05:49.777Z,24.98
2019-02-10T10:08:16.495Z,21.40
2019-02-10T10:10:43.221Z,24.30
2019-02-10T10:13:09.971Z,18.23
2019-02-10T10:15:36.818Z,25.40
2019-02-10T10:18:03.647Z,21.52
2019-02-10T10:20:30.798Z,16.02
2019-02-10T10:22:57.828Z,16.70
2019-02-10T10:25:24.503Z,16.48
2019-02-10T10:27:51.325Z,15.93
2019-02-10T10:30:18.167Z,17.40
2019-02-10T10:32:44.895Z,10.30
2019-02-10T10:35:11.539Z,9.88
2019-02-10T10:37:38.387Z,15.43
2019-02-10T10:40:05.234Z,15.45
2019-02-10T10:42:32.167Z,12.18
2019-02-10T10:44:59.007Z,16.12
2019-02-10T10:47:25.752Z,14.58
2019-02-10T10:49:52.609Z,13.85
2019-02-10T10:52:19.477Z,26.52
2019-02-10T10:54:46.274Z,14.10
2019-02-10T10:57:13.011Z,8.58
2019-02-10T10:59:39.751Z,9.55
2019-02-10T11:02:06.595Z,8.00
2019-02-10T11:04:33.282Z,14.90
2019-02-10T11:06:59.999Z,7.83
2019-02-10T11:09:26.720Z,9.38
2019-02-10T11:11:53.440Z,9.43
2019-02-10T11:14:20.267Z,10.80
2019-02-10T11:16:46.956Z,19.73
2019-02-10T11:19:13.669Z,23.60
2019-02-10T11:21:40.364Z,19.90
2019-02-10T11:24:06.988Z,23.65
2019-02-10T11:26:33.690Z,36.08
2019-02-10T11:29:00.341Z,26.62
2019-02-10T11:31:27.163Z,26.95
2019-02-10T11:33:54.005Z,24.57
2019-02-10T11:36:20.741Z,33.30
2019-02-10T11:38:47.585Z,30.23
2019-02-10T11:41:14.316Z,30.00
2019-02-10T11:43:41.167Z,31.73
2019-02-10T11:46:07.856Z,35.10
2019-02-10T11:48:34.644Z,32.20
2019-02-10T11:51:01.370Z,35.20
2019-02-10T11:53:28.107Z,29.75
2019-02-10T11:55:54.934Z,37.33
2019-02-10T11:58:21.705Z,46.58
2019-02-10T12:00:48.548Z,37.38
2019-02-10T12:03:15.274Z,34.67
2019-02-10T12:05:42.010Z,32.43
2019-02-10T12:08:08.873Z,37.17
2019-02-10T12:10:35.597Z,35.40
2019-02-10T12:13:02.433Z,35.97
2019-02-10T12:15:29.174Z,40.50
2019-02-10T12:17:55.912Z,58.67
2019-02-10T12:20:22.722Z,47.40
2019-02-10T12:22:50.445Z,39.50
2019-02-10T12:25:17.264Z,38.87
2019-02-10T12:27:43.995Z,34.63
2019-02-10T12:30:10.647Z,34.50
2019-02-10T12:32:37.483Z,32.47
2019-02-10T12:35:04.333Z,42.20
2019-02-10T12:37:32.504Z,35.30
2019-02-10T12:40:00.066Z,41.93
2019-02-10T12:42:27.206Z,48.40
2019-02-10T12:44:54.345Z,36.37
2019-02-10T12:47:21.098Z,37.20
2019-02-10T12:49:47.824Z,35.23
2019-02-10T12:52:14.461Z,47.00
2019-02-10T12:54:41.187Z,58.63
2019-02-10T12:57:07.959Z,40.47
2019-02-10T12:59:34.691Z,78.90
2019-02-10T13:02:01.415Z,44.80
2019-02-10T13:04:28.112Z,47.47
2019-02-10T13:06:54.726Z,41.10
2019-02-10T13:09:21.400Z,35.37
2019-02-10T13:11:48.102Z,38.07
2019-02-10T13:14:14.816Z,37.60
2019-02-10T13:16:41.660Z,41.53
2019-02-10T13:19:08.390Z,38.23
2019-02-10T13:21:35.153Z,49.37
2019-02-10T13:24:01.865Z,40.30
2019-02-10T13:26:28.503Z,35.63
2019-02-10T13:28:55.245Z,40.03
2019-02-10T13:31:22.094Z,42.17
2019-02-10T13:33:48.885Z,35.83
2019-02-10T13:36:15.681Z,38.60
2019-02-10T13:38:42.404Z,34.80
2019-02-10T13:41:09.145Z,37.53
2019-02-10T13:43:35.781Z,33.07
2019-02-10T13:46:02.620Z,47.73
2019-02-10T13:48:29.373Z,38.03
2019-02-10T13:50:56.110Z,37.10
2019-02-10T13:53:23.064Z,41.83
2019-02-10T13:55:49.767Z,41.67
2019-02-10T13:58:16.455Z,33.70
2019-02-10T14:00:43.161Z,41.23
2019-02-10T14:03:09.895Z,37.10
2019-02-10T14:05:36.624Z,31.90
2019-02-10T14:08:03.310Z,36.87
2019-02-10T14:10:31.003Z,37.23
2019-02-10T14:12:57.728Z,38.60
2019-02-10T14:15:24.443Z,40.43
2019-02-10T14:17:51.145Z,40.17
2019-02-10T14:20:17.779Z,39.33
2019-02-10T14:22:44.570Z,41.27
2019-02-10T14:25:11.296Z,41.03
2019-02-10T14:27:38.022Z,47.00
2019-02-10T14:30:04.716Z,38.67
2019-02-10T14:32:31.407Z,43.10
2019-02-10T14:34:58.124Z,36.87
2019-02-10T14:37:24.843Z,38.67
2019-02-10T14:39:51.549Z,35.33
2019-02-10T14:42:18.274Z,37.73
2019-02-10T14:44:44.977Z,34.33
2019-02-10T14:47:11.834Z,34.53
2019-02-10T14:49:38.569Z,30.63
2019-02-10T14:52:05.298Z,33.27
2019-02-10T14:54:32.049Z,40.93
2019-02-10T14:56:58.788Z,44.20
2019-02-10T14:59:25.565Z,46.83
2019-02-10T15:01:52.286Z,44.60
2019-02-10T15:04:18.982Z,41.63
2019-02-10T15:06:45.711Z,37.47
2019-02-10T15:09:12.416Z,41.73
2019-02-10T15:11:39.171Z,34.50
2019-02-10T15:14:05.799Z,56.57
2019-02-10T15:16:34.117Z,35.57
2019-02-10T15:19:00.976Z,37.73
2019-02-10T15:21:27.694Z,34.50
2019-02-10T15:23:54.463Z,32.80
2019-02-10T15:26:21.198Z,38.90
2019-02-10T15:28:47.926Z,34.77
2019-02-10T15:31:14.619Z,41.13
2019-02-10T15:33:41.358Z,38.97
2019-02-10T15:36:08.204Z,39.40
2019-02-10T15:38:34.952Z,55.93
2019-02-10T15:41:01.671Z,45.93
2019-02-10T15:43:28.372Z,65.40
2019-02-10T15:45:55.112Z,37.80
2019-02-10T15:48:21.895Z,44.07
2019-02-10T15:50:48.592Z,46.03
2019-02-10T15:53:15.283Z,49.33
2019-02-10T15:55:41.984Z,58.77
2019-02-10T15:58:08.602Z,60.10
2019-02-10T16:00:35.398Z,63.17
2019-02-10T16:03:02.133Z,44.13
2019-02-10T16:05:28.820Z,55.37
2019-02-10T16:07:55.481Z,47.70
2019-02-10T16:10:22.212Z,60.93
2019-02-10T16:12:49.062Z,49.30
2019-02-10T16:15:15.767Z,52.83
2019-02-10T16:17:42.398Z,43.17
2019-02-10T16:20:09.056Z,59.03
2019-02-10T16:22:35.776Z,49.47
2019-02-10T16:25:02.516Z,43.23
2019-02-10T16:27:29.163Z,37.37
2019-02-10T16:29:55.858Z,47.67
2019-02-10T16:32:22.484Z,41.37
2019-02-10T16:34:49.103Z,41.37
2019-02-10T16:37:15.914Z,48.70
2019-02-10T16:39:42.636Z,41.07
2019-02-10T16:42:09.368Z,35.73
2019-02-10T16:44:36.068Z,43.27
2019-02-10T16:47:02.804Z,39.77
2019-02-10T16:49:29.556Z,45.60
2019-02-10T16:51:56.280Z,32.70
2019-02-10T16:54:23.000Z,47.47
2019-02-10T16:56:49.706Z,44.93
2019-02-10T16:59:16.363Z,48.77
2019-02-10T17:01:43.128Z,44.07
2019-02-10T17:04:09.811Z,49.27
2019-02-10T17:06:36.448Z,46.17
2019-02-10T17:09:03.215Z,41.73
2019-02-10T17:11:29.947Z,46.97
2019-02-10T17:13:56.729Z,55.67
2019-02-10T17:16:23.466Z,50.03
2019-02-10T17:18:50.178Z,77.97
2019-02-10T17:21:16.930Z,55.13
2019-02-10T17:23:43.613Z,54.67
2019-02-10T17:26:10.408Z,51.40
2019-02-10T17:28:37.122Z,62.77
2019-02-10T17:31:03.743Z,45.90
2019-02-10T17:33:30.420Z,45.20
2019-02-10T17:35:57.104Z,56.27
2019-02-10T17:38:23.951Z,53.70
2019-02-10T17:40:50.740Z,50.77
2019-02-10T17:43:17.545Z,64.40
2019-02-10T17:45:44.307Z,47.20
2019-02-10T17:48:11.044Z,67.30
2019-02-10T17:50:37.830Z,49.37
2019-02-10T17:53:04.522Z,54.73
2019-02-10T17:55:31.259Z,54.13
2019-02-10T17:57:57.951Z,40.33
2019-02-10T18:00:24.576Z,49.03
2019-02-10T18:02:51.370Z,46.93
2019-02-10T18:05:18.062Z,52.40
2019-02-10T18:07:44.801Z,45.27
2019-02-10T18:10:11.494Z,43.57
2019-02-10T18:12:40.268Z,38.70
2019-02-10T18:15:08.082Z,54.37
2019-02-10T18:17:36.119Z,45.03
2019-02-10T18:20:08.281Z,45.80
2019-02-10T18:22:36.632Z,38.73
2019-02-10T18:25:05.009Z,46.33
2019-02-10T18:27:32.362Z,55.53
2019-02-10T18:32:47.619Z,40.67
2019-02-10T18:35:14.324Z,45.10
2019-02-10T18:37:42.757Z,41.97
2019-02-10T18:40:09.440Z,45.40
2019-02-10T18:42:36.284Z,39.13
2019-02-10T18:45:03.528Z,47.23
2019-02-10T18:47:30.267Z,44.13
2019-02-10T18:49:57.120Z,40.63
2019-02-10T18:52:23.851Z,36.87
2019-02-10T18:54:52.330Z,39.33
2019-02-10T18:57:18.986Z,47.27
2019-02-10T18:59:45.805Z,36.33
2019-02-10T19:02:12.537Z,50.43
2019-02-10T19:04:39.181Z,47.00
2019-02-10T19:07:05.923Z,40.70
2019-02-10T19:09:33.248Z,46.20
2019-02-10T19:12:00.004Z,37.27
2019-02-10T19:14:26.754Z,43.97
2019-02-10T19:16:53.594Z,33.50
2019-02-10T19:19:20.436Z,40.33
2019-02-10T19:21:47.280Z,43.60
2019-02-10T19:24:13.990Z,39.57
2019-02-10T19:26:40.726Z,45.57
2019-02-10T19:29:07.435Z,47.93
2019-02-10T19:31:34.131Z,47.77
2019-02-10T19:34:00.902Z,45.63
2019-02-10T19:36:27.626Z,47.10
2019-02-10T19:38:54.356Z,44.23
2019-02-10T19:41:21.082Z,44.90
2019-02-10T19:43:47.824Z,43.17
2019-02-10T19:46:14.623Z,49.63
2019-02-10T19:48:41.727Z,46.20
2019-02-10T19:51:08.456Z,49.17
2019-02-10T19:53:35.196Z,44.73
2019-02-10T19:56:01.954Z,41.80
2019-02-10T19:58:29.180Z,43.20
2019-02-10T20:00:55.919Z,39.70
2019-02-10T20:03:22.658Z,43.13
2019-02-10T20:05:49.817Z,42.03
2019-02-10T20:08:16.557Z,41.20
2019-02-10T20:10:43.705Z,44.63
2019-02-10T20:13:10.441Z,46.97
2019-02-10T20:15:37.275Z,35.20
2019-02-10T20:18:05.863Z,39.60
2019-02-10T20:20:32.849Z,43.07
2019-02-10T20:22:59.691Z,39.63
2019-02-10T20:25:26.527Z,35.90
2019-02-10T20:27:53.300Z,44.97
2019-02-10T20:30:20.024Z,41.87
2019-02-10T20:32:49.056Z,53.40
2019-02-10T20:35:18.027Z,35.87
2019-02-10T20:37:46.662Z,38.93
2019-02-10T20:40:15.064Z,40.40
2019-02-10T20:42:44.051Z,42.23
2019-02-10T20:45:11.036Z,52.13
2019-02-10T20:47:38.049Z,42.40
2019-02-10T20:50:05.055Z,51.90
2019-02-10T20:52:31.842Z,50.10
2019-02-10T20:54:58.574Z,58.17
2019-02-10T20:57:25.300Z,44.93
2019-02-10T20:59:52.078Z,47.07
2019-02-10T21:02:18.772Z,43.20
2019-02-10T21:04:45.576Z,43.40
2019-02-10T21:07:12.215Z,60.17
2019-02-10T21:09:38.911Z,51.23
2019-02-10T21:12:05.783Z,42.23
2019-02-10T21:14:32.444Z,42.63
2019-02-10T21:16:59.138Z,46.33
2019-02-10T21:19:25.910Z,44.90
2019-02-10T21:21:52.658Z,53.57
2019-02-10T21:24:19.493Z,48.27
2019-02-10T21:26:46.233Z,44.73
2019-02-10T21:29:12.982Z,42.40
2019-02-10T21:31:39.826Z,54.27
2019-02-10T21:34:06.562Z,46.23
2019-02-10T21:36:33.401Z,46.67
2019-02-10T21:39:00.680Z,42.10
2019-02-10T21:41:27.811Z,54.13
2019-02-10T21:43:54.530Z,43.90
2019-02-10T21:46:21.297Z,40.80
2019-02-10T21:48:48.380Z,60.43
2019-02-10T21:51:15.160Z,79.83
2019-02-10T21:53:41.793Z,42.80
2019-02-10T21:56:08.523Z,58.00
2019-02-10T21:58:35.217Z,43.70
2019-02-10T22:01:01.986Z,43.17
2019-02-10T22:03:28.677Z,67.80
2019-02-10T22:05:55.403Z,50.07
2019-02-10T22:08:22.150Z,43.90
2019-02-10T22:10:48.832Z,48.50
2019-02-10T22:13:15.535Z,57.10
2019-02-10T22:15:42.255Z,49.33
2019-02-10T22:18:08.951Z,58.47
2019-02-10T22:20:35.693Z,50.73
2019-02-10T22:23:02.433Z,56.87
2019-02-10T22:25:29.267Z,48.97
2019-02-10T22:27:55.964Z,61.90
2019-02-10T22:30:22.613Z,57.27
2019-02-10T22:32:49.359Z,54.17
2019-02-10T22:35:16.247Z,55.37
2019-02-10T22:37:43.026Z,51.37
2019-02-10T22:40:09.723Z,55.10
2019-02-10T22:42:45.155Z,51.37
2019-02-10T22:45:05.312Z,56.30
2019-02-10T22:47:32.020Z,48.50
2019-02-10T22:49:59.183Z,48.43
2019-02-10T22:52:25.878Z,42.57
2019-02-10T22:54:52.494Z,38.43
2019-02-10T22:57:19.193Z,45.10
2019-02-10T22:59:45.840Z,48.00
2019-02-10T23:02:12.766Z,51.93
2019-02-10T23:04:39.496Z,47.33
2019-02-10T23:07:06.225Z,49.90
2019-02-10T23:09:32.978Z,51.40
2019-02-10T23:11:59.712Z,49.10
2019-02-10T23:14:26.557Z,63.50
2019-02-10T23:16:53.286Z,47.37
2019-02-10T23:19:20.064Z,46.70
2019-02-10T23:21:46.779Z,46.87
2019-02-10T23:24:13.502Z,41.70
2019-02-10T23:26:40.242Z,41.77
2019-02-10T23:29:07.084Z,63.87
2019-02-10T23:31:33.849Z,50.70
2019-02-10T23:34:00.579Z,44.90
2019-02-10T23:36:27.317Z,37.97
2019-02-10T23:38:54.482Z,39.07
2019-02-10T23:41:21.198Z,45.47
2019-02-10T23:43:47.937Z,43.07
2019-02-10T23:46:14.673Z,45.60
2019-02-10T23:48:41.419Z,43.63
2019-02-10T23:51:08.720Z,35.10
2019-02-10T23:53:35.501Z,39.67
2019-02-10T23:56:02.249Z,40.87
2019-02-10T23:58:28.991Z,37.77
